Time;durP1;ratioP1;P1;durP2;ratioP2;P2;SDS_P1;SDS_P2;PMS_P1;PMS_P2;Temp;Humidity;BMP_temperature;BMP_pressure;BME280_temperature;BME280_humidity;BME280_pressure;Samples;Min_cycle;Max_cycle;Signal;HPM_P1;HPM_P2
2022/03/19 00:02:37;;;;;;;;;;;;;;;;;;4219109;28;2238;-62
2022/03/19 00:04:58;;;;;;;;;;;;;;;;;;4219884;28;1005;-62
2022/03/19 00:07:18;;;;;;;;;;;;;;;;;;4220030;28;1156;-62
2022/03/19 00:09:39;;;;;;;;;;;;;;;;;;4219814;28;972;-62
2022/03/19 00:11:59;;;;;;;;;;;;;;;;;;4219810;28;1028;-62
2022/03/19 00:14:20;;;;;;;;;;;;;;;;;;4219611;28;869;-62
2022/03/19 00:16:41;;;;;;;;;;;;;;;;;;4219958;28;805;-62
2022/03/19 00:19:01;;;;;;;;;;;;;;;;;;4232953;28;1050;-62
2022/03/19 00:21:23;;;;;;;;;;;;;;;;;;4219470;28;1028;-62
2022/03/19 00:23:43;;;;;;;;;;;;;;;;;;4219537;28;1988;-62
2022/03/19 00:26:04;;;;;;;;;;;;;;;;;;4219603;28;970;-62
2022/03/19 00:28:25;;;;;;;;;;;;;;;;;;4219856;28;1013;-62
2022/03/19 00:30:46;;;;;;;;;;;;;;;;;;4218610;28;957;-62
2022/03/19 00:33:07;;;;;;;;;;;;;;;;;;4219579;28;1004;-62
2022/03/19 00:35:28;;;;;;;;;;;;;;;;;;4219716;28;836;-62
2022/03/19 00:37:49;;;;;;;;;;;;;;;;;;4219643;28;1088;-62
2022/03/19 00:40:09;;;;;;;;;;;;;;;;;;4219496;28;832;-62
2022/03/19 00:42:31;;;;;;;;;;;;;;;;;;4219055;28;1909;-62
2022/03/19 00:44:52;;;;;;;;;;;;;;;;;;4219547;28;1070;-62
2022/03/19 00:47:12;;;;;;;;;;;;;;;;;;4218880;28;943;-62
2022/03/19 00:49:33;;;;;;;;;;;;;;;;;;4219455;28;808;-62
2022/03/19 00:51:54;;;;;;;;;;;;;;;;;;4219170;28;916;-62
2022/03/19 00:54:15;;;;;;;;;;;;;;;;;;4219206;28;1098;-62
2022/03/19 00:56:36;;;;;;;;;;;;;;;;;;4219092;28;972;-62
2022/03/19 00:58:57;;;;;;;;;;;;;;;;;;4218968;28;1036;-62
2022/03/19 01:01:18;;;;;;;;;;;;;;;;;;4218902;28;982;-61
2022/03/19 01:03:38;;;;;;;;;;;;;;;;;;4219332;28;1983;-62
2022/03/19 01:05:59;;;;;;;;;;;;;;;;;;4219569;28;1106;-62
2022/03/19 01:08:20;;;;;;;;;;;;;;;;;;4221854;28;1124;-61
2022/03/19 01:10:41;;;;;;;;;;;;;;;;;;4221065;28;1205;-61
2022/03/19 01:13:02;;;;;;;;;;;;;;;;;;4222157;28;842;-62
2022/03/19 01:15:22;;;;;;;;;;;;;;;;;;4222290;28;935;-61
2022/03/19 01:17:43;;;;;;;;;;;;;;;;;;4222206;28;946;-61
2022/03/19 01:20:04;;;;;;;;;;;;;;;;;;4222077;28;1092;-62
2022/03/19 01:22:25;;;;;;;;;;;;;;;;;;4221988;28;811;-61
2022/03/19 01:24:46;;;;;;;;;;;;;;;;;;4221688;28;959;-62
2022/03/19 01:27:07;;;;;;;;;;;;;;;;;;4221469;28;1120;-62
2022/03/19 01:29:28;;;;;;;;;;;;;;;;;;4221651;28;1380;-62
2022/03/19 01:31:48;;;;;;;;;;;;;;;;;;4221684;28;1103;-62
2022/03/19 01:34:10;;;;;;;;;;;;;;;;;;4221947;28;980;-62
2022/03/19 01:36:30;;;;;;;;;;;;;;;;;;4221556;28;1067;-62
2022/03/19 01:38:51;;;;;;;;;;;;;;;;;;4220469;28;868;-62
2022/03/19 01:41:11;;;;;;;;;;;;;;;;;;4221764;28;1039;-61
2022/03/19 01:43:32;;;;;;;;;;;;;;;;;;4221436;28;1905;-62
2022/03/19 01:45:53;;;;;;;;;;;;;;;;;;4221398;28;1150;-62
2022/03/19 01:48:13;;;;;;;;;;;;;;;;;;4221477;28;1008;-62
2022/03/19 01:50:35;;;;;;;;;;;;;;;;;;4219971;28;877;-62
2022/03/19 01:52:56;;;;;;;;;;;;;;;;;;4219786;28;972;-62
2022/03/19 01:55:16;;;;;;;;;;;;;;;;;;4221483;28;1089;-62
2022/03/19 01:57:38;;;;;;;;;;;;;;;;;;4220823;28;830;-62
2022/03/19 02:00:00;;;;;;;;;;;;;;;;;;4221215;28;983;-62
2022/03/19 02:02:45;;;;;;;;;;;;;;;;;;4221796;28;793;-61
2022/03/19 02:05:06;;;;;;;;;;;;;;;;;;4203348;28;1380;-62
2022/03/19 02:07:26;;;;;;;;;;;;;;;;;;4203948;28;1349;-62
2022/03/19 02:09:47;;;;;;;;;;;;;;;;;;4203568;28;1330;-62
2022/03/19 02:12:09;;;;;;;;;;;;;;;;;;4204142;28;1446;-62
2022/03/19 02:14:31;;;;;;;;;;;;;;;;;;4204559;28;1245;-62
2022/03/19 02:16:52;;;;;;;;;;;;;;;;;;4203944;28;1025;-62
2022/03/19 02:19:13;;;;;;;;;;;;;;;;;;4204072;28;1084;-61
2022/03/19 02:21:34;;;;;;;;;;;;;;;;;;4202549;28;1106;-61
2022/03/19 02:26:38;;;;;;;;;;;;;;;;;;4185895;28;1084;-62
2022/03/19 02:28:59;;;;;;;;;;;;;;;;;;4203831;28;1082;-62
2022/03/19 02:31:19;;;;;;;;;;;;;;;;;;4202947;28;1286;-62
2022/03/19 02:33:40;;;;;;;;;;;;;;;;;;4203675;28;1119;-62
2022/03/19 02:36:02;;;;;;;;;;;;;;;;;;4203850;28;1076;-62
2022/03/19 02:38:22;;;;;;;;;;;;;;;;;;4204457;28;938;-62
2022/03/19 02:40:43;;;;;;;;;;;;;;;;;;4204225;28;996;-62
2022/03/19 02:43:04;;;;;;;;;;;;;;;;;;4203592;28;914;-61
2022/03/19 02:45:24;;;;;;;;;;;;;;;;;;4203831;28;1033;-62
2022/03/19 02:48:00;;;;;;;;;;;;;;;;;;4203665;28;1210;-62
2022/03/19 02:50:21;;;;;;;;;;;;;;;;;;4203649;28;974;-62
2022/03/19 02:52:41;;;;;;;;;;;;;;;;;;4203554;28;988;-62
2022/03/19 02:55:02;;;;;;;;;;;;;;;;;;4203569;28;1222;-62
2022/03/19 02:57:24;;;;;;;;;;;;;;;;;;4203766;28;1199;-61
2022/03/19 02:59:44;;;;;;;;;;;;;;;;;;4203761;28;1441;-61
2022/03/19 03:02:05;;;;;;;;;;;;;;;;;;4203931;28;1246;-61
2022/03/19 03:04:26;;;;;;;;;;;;;;;;;;4203546;28;1909;-61
2022/03/19 03:06:47;;;;;;;;;;;;;;;;;;4203606;28;1212;-61
2022/03/19 03:09:07;;;;;;;;;;;;;;;;;;4203467;28;1227;-62
2022/03/19 03:11:29;;;;;;;;;;;;;;;;;;4203603;28;1037;-61
2022/03/19 03:13:49;;;;;;;;;;;;;;;;;;4203134;28;938;-62
2022/03/19 03:16:10;;;;;;;;;;;;;;;;;;4203353;28;859;-61
2022/03/19 03:18:31;;;;;;;;;;;;;;;;;;4203256;28;1136;-62
2022/03/19 03:20:52;;;;;;;;;;;;;;;;;;4202983;28;973;-62
2022/03/19 03:23:14;;;;;;;;;;;;;;;;;;4203114;28;1023;-61
2022/03/19 03:25:35;;;;;;;;;;;;;;;;;;4203640;28;931;-61
2022/03/19 03:27:55;;;;;;;;;;;;;;;;;;4203445;28;941;-61
2022/03/19 03:30:18;;;;;;;;;;;;;;;;;;4203249;28;1201;-62
2022/03/19 03:32:39;;;;;;;;;;;;;;;;;;4203511;28;975;-62
2022/03/19 03:34:59;;;;;;;;;;;;;;;;;;4202036;28;967;-61
2022/03/19 03:37:20;;;;;;;;;;;;;;;;;;4203250;28;980;-63
2022/03/19 03:39:41;;;;;;;;;;;;;;;;;;4203521;28;838;-61
2022/03/19 03:42:01;;;;;;;;;;;;;;;;;;4203284;28;971;-62
2022/03/19 03:44:22;;;;;;;;;;;;;;;;;;4203239;28;1984;-61
2022/03/19 03:46:43;;;;;;;;;;;;;;;;;;4203111;28;1140;-61
2022/03/19 03:49:03;;;;;;;;;;;;;;;;;;4203161;28;1347;-61
2022/03/19 03:51:24;;;;;;;;;;;;;;;;;;4202995;28;1038;-61
2022/03/19 03:53:45;;;;;;;;;;;;;;;;;;4203275;28;950;-61
2022/03/19 03:56:06;;;;;;;;;;;;;;;;;;4203563;28;860;-62
2022/03/19 03:58:27;;;;;;;;;;;;;;;;;;4203370;28;1063;-61
2022/03/19 04:00:47;;;;;;;;;;;;;;;;;;4203423;28;970;-62
2022/03/19 04:03:08;;;;;;;;;;;;;;;;;;4202967;28;1162;-61
2022/03/19 04:05:29;;;;;;;;;;;;;;;;;;4203158;28;1933;-62
2022/03/19 04:07:50;;;;;;;;;;;;;;;;;;4201903;28;1045;-61
2022/03/19 04:10:11;;;;;;;;;;;;;;;;;;4202939;28;962;-61
2022/03/19 04:12:31;;;;;;;;;;;;;;;;;;4202931;28;1004;-62
2022/03/19 04:14:52;;;;;;;;;;;;;;;;;;4202678;28;1065;-62
2022/03/19 04:17:13;;;;;;;;;;;;;;;;;;4202345;28;1207;-61
2022/03/19 04:19:33;;;;;;;;;;;;;;;;;;4202696;28;1243;-61
2022/03/19 04:21:54;;;;;;;;;;;;;;;;;;4202345;28;1160;-61
2022/03/19 04:24:15;;;;;;;;;;;;;;;;;;4202149;28;1909;-61
2022/03/19 04:26:35;;;;;;;;;;;;;;;;;;4203145;28;1285;-61
2022/03/19 04:28:56;;;;;;;;;;;;;;;;;;4202480;28;986;-62
2022/03/19 04:31:16;;;;;;;;;;;;;;;;;;4202694;28;954;-61
2022/03/19 04:33:38;;;;;;;;;;;;;;;;;;4203005;28;1216;-61
2022/03/19 04:38:38;;;;;;;;;;;;;;;;;;4202794;28;1123;-64
2022/03/19 04:40:59;;;;;;;;;;;;;;;;;;4203451;28;888;-62
2022/03/19 04:43:21;;;;;;;;;;;;;;;;;;4206106;28;999;-61
2022/03/19 04:45:43;;;;;;;;;;;;;;;;;;4205401;28;1906;-61
2022/03/19 04:48:04;;;;;;;;;;;;;;;;;;4205411;28;1175;-62
2022/03/19 04:50:24;;;;;;;;;;;;;;;;;;4205925;28;957;-61
2022/03/19 04:52:45;;;;;;;;;;;;;;;;;;4205608;28;921;-61
2022/03/19 04:55:06;;;;;;;;;;;;;;;;;;4205554;28;1255;-62
2022/03/19 04:57:27;;;;;;;;;;;;;;;;;;4205622;28;1053;-61
2022/03/19 04:59:48;;;;;;;;;;;;;;;;;;4205035;28;1088;-62
2022/03/19 05:02:09;;;;;;;;;;;;;;;;;;4205333;28;1016;-62
2022/03/19 05:04:30;;;;;;;;;;;;;;;;;;4205307;28;1905;-61
2022/03/19 05:06:51;;;;;;;;;;;;;;;;;;4205373;28;1018;-62
2022/03/19 05:11:50;;;;;;;;;;;;;;;;;;4205163;28;926;-61
2022/03/19 05:14:11;;;;;;;;;;;;;;;;;;4205273;28;1230;-62
2022/03/19 05:16:32;;;;;;;;;;;;;;;;;;4205519;28;1369;-62
2022/03/19 05:18:52;;;;;;;;;;;;;;;;;;4205154;28;1068;-62
2022/03/19 05:21:13;;;;;;;;;;;;;;;;;;4205109;28;1065;-61
2022/03/19 05:23:35;;;;;;;;;;;;;;;;;;4205178;28;1093;-61
2022/03/19 05:25:55;;;;;;;;;;;;;;;;;;4204921;28;1905;-62
2022/03/19 05:28:16;;;;;;;;;;;;;;;;;;4205507;28;1076;-61
2022/03/19 05:30:37;;;;;;;;;;;;;;;;;;4205005;28;831;-62
2022/03/19 05:32:57;;;;;;;;;;;;;;;;;;4204435;28;979;-62
2022/03/19 05:35:18;;;;;;;;;;;;;;;;;;4204779;28;1150;-61
2022/03/19 05:37:39;;;;;;;;;;;;;;;;;;4204893;28;817;-62
2022/03/19 05:40:00;;;;;;;;;;;;;;;;;;4204584;28;921;-62
2022/03/19 05:42:21;;;;;;;;;;;;;;;;;;4204623;28;954;-62
2022/03/19 05:44:42;;;;;;;;;;;;;;;;;;4204560;28;1957;-62
2022/03/19 05:47:03;;;;;;;;;;;;;;;;;;4204750;28;845;-62
2022/03/19 05:49:24;;;;;;;;;;;;;;;;;;4204706;28;865;-62
2022/03/19 05:51:45;;;;;;;;;;;;;;;;;;4204228;28;1060;-62
2022/03/19 05:54:07;;;;;;;;;;;;;;;;;;4204380;28;977;-61
2022/03/19 05:56:28;;;;;;;;;;;;;;;;;;4204272;28;1185;-62
2022/03/19 05:58:49;;;;;;;;;;;;;;;;;;4204101;28;1371;-62
2022/03/19 06:01:09;;;;;;;;;;;;;;;;;;4203039;28;1661;-61
2022/03/19 06:03:30;;;;;;;;;;;;;;;;;;4203922;28;1557;-62
2022/03/19 06:05:50;;;;;;;;;;;;;;;;;;4203989;28;1982;-62
2022/03/19 06:08:11;;;;;;;;;;;;;;;;;;4204203;28;1191;-62
2022/03/19 06:10:35;;;;;;;;;;;;;;;;;;4203986;28;1598;-62
2022/03/19 06:12:56;;;;;;;;;;;;;;;;;;4203861;28;1038;-62
2022/03/19 06:15:16;;;;;;;;;;;;;;;;;;4204217;28;880;-62
2022/03/19 06:17:37;;;;;;;;;;;;;;;;;;4204067;28;1048;-62
2022/03/19 06:19:58;;;;;;;;;;;;;;;;;;4204723;28;937;-61
2022/03/19 06:22:18;;;;;;;;;;;;;;;;;;4202828;28;1258;-62
2022/03/19 06:24:39;;;;;;;;;;;;;;;;;;4187788;28;1906;-62
2022/03/19 06:27:00;;;;;;;;;;;;;;;;;;4187516;28;802;-62
2022/03/19 06:29:22;;;;;;;;;;;;;;;;;;4186347;28;2629;-62
2022/03/19 06:31:42;;;;;;;;;;;;;;;;;;4203273;28;1422;-62
2022/03/19 06:34:03;;;;;;;;;;;;;;;;;;4203756;28;922;-62
2022/03/19 06:39:02;;;;;;;;;;;;;;;;;;4203705;28;956;-62
2022/03/19 06:41:23;;;;;;;;;;;;;;;;;;4203158;28;1255;-62
2022/03/19 06:43:44;;;;;;;;;;;;;;;;;;4203579;28;1019;-62
2022/03/19 06:46:04;;;;;;;;;;;;;;;;;;4203094;28;1906;-62
2022/03/19 06:48:25;;;;;;;;;;;;;;;;;;4203762;28;1215;-62
2022/03/19 06:50:46;;;;;;;;;;;;;;;;;;4203528;28;921;-62
2022/03/19 06:53:07;;;;;;;;;;;;;;;;;;4203499;28;933;-62
2022/03/19 06:55:27;;;;;;;;;;;;;;;;;;4203490;28;952;-62
2022/03/19 06:57:48;;;;;;;;;;;;;;;;;;4203246;28;1294;-62
2022/03/19 07:00:09;;;;;;;;;;;;;;;;;;4202489;28;1088;-62
2022/03/19 07:02:30;;;;;;;;;;;;;;;;;;4203030;28;1107;-61
2022/03/19 07:04:51;;;;;;;;;;;;;;;;;;4202402;28;1926;-62
2022/03/19 07:07:12;;;;;;;;;;;;;;;;;;4203738;28;1082;-61
2022/03/19 07:09:33;;;;;;;;;;;;;;;;;;4203335;28;1976;-62
2022/03/19 07:11:53;;;;;;;;;;;;;;;;;;4202084;28;1973;-62
2022/03/19 07:14:14;;;;;;;;;;;;;;;;;;4202340;28;1453;-61
2022/03/19 07:16:35;;;;;;;;;;;;;;;;;;4204072;28;983;-61
2022/03/19 07:18:56;;;;;;;;;;;;;;;;;;4203428;28;1754;-61
2022/03/19 07:21:17;;;;;;;;;;;;;;;;;;4214265;28;1430;-61
2022/03/19 07:23:37;;;;;;;;;;;;;;;;;;4200492;28;1886;-61
2022/03/19 07:26:01;;;;;;;;;;;;;;;;;;4198502;28;1980;-61
2022/03/19 07:28:22;;;;;;;;;;;;;;;;;;4199908;28;1679;-61
2022/03/19 07:30:42;;;;;;;;;;;;;;;;;;4201429;28;1837;-61
2022/03/19 07:33:03;;;;;;;;;;;;;;;;;;4202319;28;1075;-61
2022/03/19 07:35:24;;;;;;;;;;;;;;;;;;4202431;28;920;-61
2022/03/19 07:37:44;;;;;;;;;;;;;;;;;;4202361;28;951;-61
2022/03/19 07:40:05;;;;;;;;;;;;;;;;;;4203017;28;1028;-61
2022/03/19 07:42:25;;;;;;;;;;;;;;;;;;4203004;28;1092;-61
2022/03/19 07:44:45;;;;;;;;;;;;;;;;;;4202882;28;1312;-61
2022/03/19 07:47:06;;;;;;;;;;;;;;;;;;4202982;28;830;-61
2022/03/19 07:49:27;;;;;;;;;;;;;;;;;;4203659;28;1020;-61
2022/03/19 07:51:54;;;;;;;;;;;;;;;;;;4203499;28;917;-61
2022/03/19 07:54:15;;;;;;;;;;;;;;;;;;4203298;28;1226;-61
2022/03/19 07:56:36;;;;;;;;;;;;;;;;;;4203614;28;860;-61
2022/03/19 07:58:56;;;;;;;;;;;;;;;;;;4203428;28;1889;-62
2022/03/19 08:01:18;;;;;;;;;;;;;;;;;;4203525;28;833;-62
2022/03/19 08:03:38;;;;;;;;;;;;;;;;;;4203522;28;1077;-61
2022/03/19 08:05:59;;;;;;;;;;;;;;;;;;4203448;28;2001;-61
2022/03/19 08:08:20;;;;;;;;;;;;;;;;;;4203162;28;1159;-62
2022/03/19 08:10:41;;;;;;;;;;;;;;;;;;4203063;28;974;-61
2022/03/19 08:13:02;;;;;;;;;;;;;;;;;;4203269;28;1007;-62
2022/03/19 08:15:22;;;;;;;;;;;;;;;;;;4204339;28;1152;-62
2022/03/19 08:17:43;;;;;;;;;;;;;;;;;;4206411;28;1072;-61
2022/03/19 08:20:06;;;;;;;;;;;;;;;;;;4206245;28;1393;-61
2022/03/19 08:22:26;;;;;;;;;;;;;;;;;;4206199;28;972;-61
2022/03/19 08:24:47;;;;;;;;;;;;;;;;;;4206461;28;1210;-61
2022/03/19 08:27:10;;;;;;;;;;;;;;;;;;4206165;28;1906;-62
2022/03/19 08:29:31;;;;;;;;;;;;;;;;;;4205971;28;1380;-61
2022/03/19 08:31:52;;;;;;;;;;;;;;;;;;4206073;28;1009;-62
2022/03/19 08:34:12;;;;;;;;;;;;;;;;;;4206032;28;974;-62
2022/03/19 08:36:33;;;;;;;;;;;;;;;;;;4206157;28;1227;-62
2022/03/19 08:41:32;;;;;;;;;;;;;;;;;;4205942;28;954;-62
2022/03/19 08:43:52;;;;;;;;;;;;;;;;;;4206004;28;1182;-62
2022/03/19 08:46:13;;;;;;;;;;;;;;;;;;4205631;28;1985;-62
2022/03/19 08:48:34;;;;;;;;;;;;;;;;;;4206093;28;1309;-61
2022/03/19 08:51:39;;;;;;;;;;;;;;;;;;4205912;28;1370;-62
2022/03/19 08:53:35;;;;;;;;;;;;;;;;;;4205722;28;990;-62
2022/03/19 08:55:56;;;;;;;;;;;;;;;;;;4205451;28;1387;-62
2022/03/19 08:58:17;;;;;;;;;;;;;;;;;;4205711;28;1159;-62
2022/03/19 09:00:40;;;;;;;;;;;;;;;;;;4205918;28;1079;-62
2022/03/19 09:03:00;;;;;;;;;;;;;;;;;;4205736;28;1111;-62
2022/03/19 09:05:21;;;;;;;;;;;;;;;;;;4205689;28;1194;-61
2022/03/19 09:07:42;;;;;;;;;;;;;;;;;;4205476;28;1157;-62
2022/03/19 09:10:03;;;;;;;;;;;;;;;;;;4205492;28;1340;-61
2022/03/19 09:12:24;;;;;;;;;;;;;;;;;;4205761;28;1078;-61
2022/03/19 09:14:44;;;;;;;;;;;;;;;;;;4205607;28;952;-62
2022/03/19 09:17:05;;;;;;;;;;;;;;;;;;4205624;28;1411;-62
2022/03/19 09:19:28;;;;;;;;;;;;;;;;;;4205449;28;1032;-62
2022/03/19 09:21:48;;;;;;;;;;;;;;;;;;4205567;28;1022;-62
2022/03/19 09:24:10;;;;;;;;;;;;;;;;;;4205450;28;1003;-62
2022/03/19 09:26:31;;;;;;;;;;;;;;;;;;4204902;28;1913;-62
2022/03/19 09:28:51;;;;;;;;;;;;;;;;;;4204985;28;1252;-62
2022/03/19 09:31:12;;;;;;;;;;;;;;;;;;4205379;28;1450;-62
2022/03/19 09:33:33;;;;;;;;;;;;;;;;;;4205194;28;1024;-62
2022/03/19 09:35:54;;;;;;;;;;;;;;;;;;4205280;28;993;-62
2022/03/19 09:38:15;;;;;;;;;;;;;;;;;;4204720;28;2142;-62
2022/03/19 09:40:36;;;;;;;;;;;;;;;;;;4203403;28;1973;-62
2022/03/19 09:42:57;;;;;;;;;;;;;;;;;;4204667;28;1759;-63
2022/03/19 09:45:18;;;;;;;;;;;;;;;;;;4203519;28;1584;-63
2022/03/19 09:47:38;;;;;;;;;;;;;;;;;;4203594;28;1986;-63
2022/03/19 09:49:59;;;;;;;;;;;;;;;;;;4204978;28;957;-65
2022/03/19 09:52:21;;;;;;;;;;;;;;;;;;4204970;28;977;-63
2022/03/19 09:54:41;;;;;;;;;;;;;;;;;;4203645;28;1305;-63
2022/03/19 09:57:02;;;;;;;;;;;;;;;;;;4204285;28;1677;-63
2022/03/19 09:59:24;;;;;;;;;;;;;;;;;;4204731;28;1197;-62
2022/03/19 10:01:44;;;;;;;;;;;;;;;;;;4204878;28;1158;-63
2022/03/19 10:04:07;;;;;;;;;;;;;;;;;;4204720;28;1465;-60
2022/03/19 10:09:05;;;;;;;;;;;;;;;;;;4204757;28;1164;-62
2022/03/19 10:11:26;;;;;;;;;;;;;;;;;;4204854;28;910;-62
2022/03/19 10:13:46;;;;;;;;;;;;;;;;;;4204725;28;1115;-64
2022/03/19 10:16:07;;;;;;;;;;;;;;;;;;4204837;28;1272;-62
2022/03/19 10:18:28;;;;;;;;;;;;;;;;;;4204762;28;816;-62
2022/03/19 10:20:49;;;;;;;;;;;;;;;;;;4204372;28;1434;-62
2022/03/19 10:23:10;;;;;;;;;;;;;;;;;;4204471;28;1119;-62
2022/03/19 10:25:30;;;;;;;;;;;;;;;;;;4204494;28;1120;-62
2022/03/19 10:27:51;;;;;;;;;;;;;;;;;;4204360;28;1976;-63
2022/03/19 10:30:13;;;;;;;;;;;;;;;;;;4204543;28;1006;-62
2022/03/19 10:32:33;;;;;;;;;;;;;;;;;;4204555;28;1096;-63
2022/03/19 10:34:54;;;;;;;;;;;;;;;;;;4204332;28;1054;-62
2022/03/19 10:37:15;;;;;;;;;;;;;;;;;;4204285;28;1522;-62
2022/03/19 10:39:35;;;;;;;;;;;;;;;;;;4203196;28;1048;-62
2022/03/19 10:41:56;;;;;;;;;;;;;;;;;;4204276;28;1373;-61
2022/03/19 10:44:17;;;;;;;;;;;;;;;;;;4204600;28;1274;-61
2022/03/19 10:46:37;;;;;;;;;;;;;;;;;;4204642;28;1973;-61
2022/03/19 10:48:58;;;;;;;;;;;;;;;;;;4204429;28;1026;-61
2022/03/19 10:51:20;;;;;;;;;;;;;;;;;;4204627;28;1072;-61
2022/03/19 10:53:46;;;;;;;;;;;;;;;;;;4204643;28;1070;-61
2022/03/19 10:56:07;;;;;;;;;;;;;;;;;;4204324;28;997;-61
2022/03/19 10:58:28;;;;;;;;;;;;;;;;;;4204196;28;1269;-62
2022/03/19 11:00:50;;;;;;;;;;;;;;;;;;4204427;28;1015;-61
2022/03/19 11:03:11;;;;;;;;;;;;;;;;;;4204208;28;1032;-61
2022/03/19 11:05:32;;;;;;;;;;;;;;;;;;4204313;28;1018;-61
2022/03/19 11:07:52;;;;;;;;;;;;;;;;;;4203910;28;1910;-61
2022/03/19 11:10:13;;;;;;;;;;;;;;;;;;4203288;28;1063;-61
2022/03/19 11:12:34;;;;;;;;;;;;;;;;;;4204148;28;845;-61
2022/03/19 11:14:55;;;;;;;;;;;;;;;;;;4204195;28;1197;-61
2022/03/19 11:17:25;;;;;;;;;;;;;;;;;;4204010;28;1207;-61
2022/03/19 11:19:46;;;;;;;;;;;;;;;;;;4204077;28;1114;-61
2022/03/19 11:22:06;;;;;;;;;;;;;;;;;;4202647;28;951;-61
2022/03/19 11:24:27;;;;;;;;;;;;;;;;;;4204209;28;1255;-61
2022/03/19 11:26:48;;;;;;;;;;;;;;;;;;4204157;28;1980;-61
2022/03/19 11:29:09;;;;;;;;;;;;;;;;;;4204002;28;1355;-61
2022/03/19 11:31:30;;;;;;;;;;;;;;;;;;4203832;28;1036;-61
2022/03/19 11:33:50;;;;;;;;;;;;;;;;;;4203934;28;975;-61
2022/03/19 11:36:11;;;;;;;;;;;;;;;;;;4204054;28;1138;-61
2022/03/19 11:38:32;;;;;;;;;;;;;;;;;;4203905;28;1497;-61
2022/03/19 11:40:55;;;;;;;;;;;;;;;;;;4203900;28;1302;-63
2022/03/19 11:43:15;;;;;;;;;;;;;;;;;;4203706;28;953;-61
2022/03/19 11:45:38;;;;;;;;;;;;;;;;;;4203539;28;1227;-60
2022/03/19 11:48:04;;;;;;;;;;;;;;;;;;4203256;28;1992;-61
2022/03/19 11:50:46;;;;;;;;;;;;;;;;;;4202313;28;1365;-61
2022/03/19 11:53:07;;;;;;;;;;;;;;;;;;4203385;28;1111;-61
2022/03/19 11:55:30;;;;;;;;;;;;;;;;;;4203280;28;948;-61
2022/03/19 11:57:55;;;;;;;;;;;;;;;;;;4203422;28;1203;-61
2022/03/19 12:00:17;;;;;;;;;;;;;;;;;;4203305;28;1377;-61
2022/03/19 12:02:38;;;;;;;;;;;;;;;;;;4202984;28;1201;-61
2022/03/19 12:05:00;;;;;;;;;;;;;;;;;;4201571;28;1230;-62
2022/03/19 12:07:24;;;;;;;;;;;;;;;;;;4202206;28;2007;-62
2022/03/19 12:09:45;;;;;;;;;;;;;;;;;;4202513;28;1020;-61
2022/03/19 12:12:07;;;;;;;;;;;;;;;;;;4203423;28;1238;-62
2022/03/19 12:14:28;;;;;;;;;;;;;;;;;;4203446;28;972;-61
2022/03/19 12:16:51;;;;;;;;;;;;;;;;;;4203285;28;1137;-61
2022/03/19 12:19:18;;;;;;;;;;;;;;;;;;4202258;28;1180;-61
2022/03/19 12:21:38;;;;;;;;;;;;;;;;;;4203125;28;1394;-61
2022/03/19 12:23:59;;;;;;;;;;;;;;;;;;4202939;28;965;-64
2022/03/19 12:26:20;;;;;;;;;;;;;;;;;;4203466;28;1190;-61
2022/03/19 12:28:42;;;;;;;;;;;;;;;;;;4203183;28;1999;-60
2022/03/19 12:31:03;;;;;;;;;;;;;;;;;;4202360;28;1098;-61
2022/03/19 12:33:24;;;;;;;;;;;;;;;;;;4202733;28;1120;-60
2022/03/19 12:35:46;;;;;;;;;;;;;;;;;;4202739;28;1008;-57
2022/03/19 12:38:07;;;;;;;;;;;;;;;;;;4202803;28;1100;-58
2022/03/19 12:40:28;;;;;;;;;;;;;;;;;;4202588;28;1282;-59
2022/03/19 12:42:48;;;;;;;;;;;;;;;;;;4202943;28;926;-60
2022/03/19 12:45:09;;;;;;;;;;;;;;;;;;4202493;28;948;-60
2022/03/19 12:47:30;;;;;;;;;;;;;;;;;;4202525;28;1985;-60
2022/03/19 12:49:51;;;;;;;;;;;;;;;;;;4202686;28;990;-60
2022/03/19 12:52:12;;;;;;;;;;;;;;;;;;4202539;28;1059;-60
2022/03/19 12:54:33;;;;;;;;;;;;;;;;;;4202649;28;1272;-59
2022/03/19 12:56:54;;;;;;;;;;;;;;;;;;4202666;28;1027;-60
2022/03/19 12:59:14;;;;;;;;;;;;;;;;;;4201994;28;1301;-60
2022/03/19 13:01:35;;;;;;;;;;;;;;;;;;4202650;28;880;-60
2022/03/19 13:03:56;;;;;;;;;;;;;;;;;;4205351;28;965;-60
2022/03/19 13:06:19;;;;;;;;;;;;;;;;;;4205230;28;969;-60
2022/03/19 13:08:40;;;;;;;;;;;;;;;;;;4205193;28;1909;-60
2022/03/19 13:11:00;;;;;;;;;;;;;;;;;;4205254;28;1161;-60
2022/03/19 13:13:21;;;;;;;;;;;;;;;;;;4205207;28;1038;-60
2022/03/19 13:15:42;;;;;;;;;;;;;;;;;;4205554;28;1052;-59
2022/03/19 13:18:03;;;;;;;;;;;;;;;;;;4205234;28;989;-60
2022/03/19 13:20:24;;;;;;;;;;;;;;;;;;4205148;28;1024;-60
2022/03/19 13:22:45;;;;;;;;;;;;;;;;;;4205248;28;1231;-60
2022/03/19 13:25:06;;;;;;;;;;;;;;;;;;4205047;28;981;-59
2022/03/19 13:27:27;;;;;;;;;;;;;;;;;;4204896;28;1980;-60
2022/03/19 13:29:51;;;;;;;;;;;;;;;;;;4205051;28;976;-60
2022/03/19 13:32:11;;;;;;;;;;;;;;;;;;4204934;28;942;-61
2022/03/19 13:34:32;;;;;;;;;;;;;;;;;;4204928;28;1004;-60
2022/03/19 13:36:53;;;;;;;;;;;;;;;;;;4204815;28;1383;-60
2022/03/19 13:39:14;;;;;;;;;;;;;;;;;;4205045;28;1468;-60
2022/03/19 13:41:34;;;;;;;;;;;;;;;;;;4204715;28;1071;-60
2022/03/19 13:43:55;;;;;;;;;;;;;;;;;;4204940;28;1004;-61
2022/03/19 13:46:20;;;;;;;;;;;;;;;;;;4204952;28;1118;-60
2022/03/19 13:48:40;;;;;;;;;;;;;;;;;;4204795;28;1983;-59
2022/03/19 13:51:03;;;;;;;;;;;;;;;;;;4204939;28;1102;-60
2022/03/19 13:53:26;;;;;;;;;;;;;;;;;;4205014;28;1052;-60
2022/03/19 13:55:47;;;;;;;;;;;;;;;;;;4205263;28;1223;-60
2022/03/19 13:58:08;;;;;;;;;;;;;;;;;;4204687;28;1213;-60
2022/03/19 14:00:31;;;;;;;;;;;;;;;;;;4205123;28;977;-60
2022/03/19 14:02:54;;;;;;;;;;;;;;;;;;4204854;28;1041;-60
2022/03/19 14:05:14;;;;;;;;;;;;;;;;;;4204739;28;1215;-60
2022/03/19 14:07:35;;;;;;;;;;;;;;;;;;4204645;28;1984;-60
2022/03/19 14:09:56;;;;;;;;;;;;;;;;;;4204709;28;1183;-60
2022/03/19 14:12:17;;;;;;;;;;;;;;;;;;4204476;28;1138;-60
2022/03/19 14:14:38;;;;;;;;;;;;;;;;;;4204283;28;1142;-61
2022/03/19 14:16:59;;;;;;;;;;;;;;;;;;4204415;28;989;-60
2022/03/19 14:19:20;;;;;;;;;;;;;;;;;;4204266;28;913;-60
2022/03/19 14:21:41;;;;;;;;;;;;;;;;;;4204887;28;982;-60
2022/03/19 14:24:02;;;;;;;;;;;;;;;;;;4204476;28;1083;-60
2022/03/19 14:26:22;;;;;;;;;;;;;;;;;;4204346;28;1000;-60
2022/03/19 14:28:43;;;;;;;;;;;;;;;;;;4204441;28;1909;-60
2022/03/19 14:31:04;;;;;;;;;;;;;;;;;;4204437;28;981;-60
2022/03/19 14:33:24;;;;;;;;;;;;;;;;;;4203869;28;1072;-60
2022/03/19 14:35:45;;;;;;;;;;;;;;;;;;4204471;28;1194;-60
2022/03/19 14:38:06;;;;;;;;;;;;;;;;;;4204556;28;994;-60
2022/03/19 14:40:26;;;;;;;;;;;;;;;;;;4204188;28;1058;-60
2022/03/19 14:42:47;;;;;;;;;;;;;;;;;;4203954;28;1225;-60
2022/03/19 14:45:08;;;;;;;;;;;;;;;;;;4204428;28;1205;-60
2022/03/19 14:47:30;;;;;;;;;;;;;;;;;;4204071;28;1009;-60
2022/03/19 14:49:51;;;;;;;;;;;;;;;;;;4203863;28;971;-60
2022/03/19 14:52:11;;;;;;;;;;;;;;;;;;4204140;28;997;-60
2022/03/19 14:54:32;;;;;;;;;;;;;;;;;;4203959;28;1467;-60
2022/03/19 14:56:52;;;;;;;;;;;;;;;;;;4204036;28;848;-60
2022/03/19 14:59:13;;;;;;;;;;;;;;;;;;4203904;28;1072;-60
2022/03/19 15:01:34;;;;;;;;;;;;;;;;;;4203934;28;1184;-60
2022/03/19 15:03:55;;;;;;;;;;;;;;;;;;4204055;28;978;-60
2022/03/19 15:06:16;;;;;;;;;;;;;;;;;;4231110;28;997;-61
2022/03/19 15:08:37;;;;;;;;;;;;;;;;;;4203894;28;1906;-60
2022/03/19 15:10:58;;;;;;;;;;;;;;;;;;4203934;28;932;-60
2022/03/19 15:13:18;;;;;;;;;;;;;;;;;;4203633;28;1059;-60
2022/03/19 15:15:39;;;;;;;;;;;;;;;;;;4204058;28;1009;-60
2022/03/19 15:18:00;;;;;;;;;;;;;;;;;;4202330;28;957;-60
2022/03/19 15:20:21;;;;;;;;;;;;;;;;;;4203558;28;1295;-60
2022/03/19 15:22:42;;;;;;;;;;;;;;;;;;4203887;28;1216;-60
2022/03/19 15:25:03;;;;;;;;;;;;;;;;;;4203206;28;854;-60
2022/03/19 15:27:24;;;;;;;;;;;;;;;;;;4203485;28;1079;-60
2022/03/19 15:29:44;;;;;;;;;;;;;;;;;;4203717;28;1986;-60
2022/03/19 15:32:05;;;;;;;;;;;;;;;;;;4203911;28;988;-60
2022/03/19 15:34:26;;;;;;;;;;;;;;;;;;4203588;28;1011;-60
2022/03/19 15:36:48;;;;;;;;;;;;;;;;;;4203704;28;977;-60
2022/03/19 15:39:09;;;;;;;;;;;;;;;;;;4203207;28;969;-60
2022/03/19 15:41:30;;;;;;;;;;;;;;;;;;4203478;28;1165;-60
2022/03/19 15:43:50;;;;;;;;;;;;;;;;;;4203677;28;1119;-60
2022/03/19 15:46:11;;;;;;;;;;;;;;;;;;4203636;28;982;-60
2022/03/19 15:48:33;;;;;;;;;;;;;;;;;;4203310;28;1929;-60
2022/03/19 15:50:53;;;;;;;;;;;;;;;;;;4203336;28;1149;-60
2022/03/19 15:53:14;;;;;;;;;;;;;;;;;;4203337;28;1184;-60
2022/03/19 15:55:35;;;;;;;;;;;;;;;;;;4203478;28;1050;-60
2022/03/19 15:57:55;;;;;;;;;;;;;;;;;;4202892;28;1127;-60
2022/03/19 16:00:16;;;;;;;;;;;;;;;;;;4203362;28;1118;-60
2022/03/19 16:02:37;;;;;;;;;;;;;;;;;;4203378;28;1028;-60
2022/03/19 16:04:58;;;;;;;;;;;;;;;;;;4203138;28;949;-60
2022/03/19 16:07:19;;;;;;;;;;;;;;;;;;4203023;28;1065;-60
2022/03/19 16:09:40;;;;;;;;;;;;;;;;;;4235258;28;1909;-60
2022/03/19 16:12:04;;;;;;;;;;;;;;;;;;4203160;28;880;-60
2022/03/19 16:14:24;;;;;;;;;;;;;;;;;;4203280;28;1036;-60
2022/03/19 16:16:45;;;;;;;;;;;;;;;;;;4202197;28;1626;-60
2022/03/19 16:19:06;;;;;;;;;;;;;;;;;;4202148;28;1021;-60
2022/03/19 16:21:27;;;;;;;;;;;;;;;;;;4202105;28;1020;-60
2022/03/19 16:23:48;;;;;;;;;;;;;;;;;;4202280;28;1090;-59
2022/03/19 16:26:09;;;;;;;;;;;;;;;;;;4202039;28;1104;-60
2022/03/19 16:28:29;;;;;;;;;;;;;;;;;;4201650;28;2010;-60
2022/03/19 16:30:50;;;;;;;;;;;;;;;;;;4201358;28;1460;-60
2022/03/19 16:33:10;;;;;;;;;;;;;;;;;;4201929;28;984;-60
2022/03/19 16:35:32;;;;;;;;;;;;;;;;;;4201789;28;969;-60
2022/03/19 16:37:52;;;;;;;;;;;;;;;;;;4204808;28;1195;-60
2022/03/19 16:40:13;;;;;;;;;;;;;;;;;;4204729;28;963;-61
2022/03/19 16:42:34;;;;;;;;;;;;;;;;;;4204495;28;981;-61